sensor_id;sensor_type;location;lat;lon;timestamp;P1;durP1;ratioP1;P2;durP2;ratioP2
50531;SDS011;36483;37.396;-122.212;2023-07-13T00:02:07;3.72;;;2.05;;
50531;SDS011;36483;37.396;-122.212;2023-07-13T00:04:36;3.65;;;1.98;;
50531;SDS011;36483;37.396;-122.212;2023-07-13T00:07:02;3.47;;;2.03;;
50531;SDS011;36483;37.396;-122.212;2023-07-13T00:09:28;4.63;;;2.13;;
50531;SDS011;36483;37.396;-122.212;2023-07-13T00:11:55;3.53;;;2.10;;
50531;SDS011;36483;37.396;-122.212;2023-07-13T00:14:23;5.22;;;1.98;;
50531;SDS011;36483;37.396;-122.212;2023-07-13T00:16:51;4.25;;;2.08;;
50531;SDS011;36483;37.396;-122.212;2023-07-13T00:19:17;2.95;;;1.90;;
50531;SDS011;36483;37.396;-122.212;2023-07-13T00:21:44;4.30;;;2.17;;
50531;SDS011;36483;37.396;-122.212;2023-07-13T00:24:12;3.90;;;1.95;;
50531;SDS011;36483;37.396;-122.212;2023-07-13T00:26:42;3.15;;;1.80;;
50531;SDS011;36483;37.396;-122.212;2023-07-13T00:29:11;5.53;;;1.88;;
50531;SDS011;36483;37.396;-122.212;2023-07-13T00:31:41;3.75;;;1.70;;
50531;SDS011;36483;37.396;-122.212;2023-07-13T00:34:07;6.03;;;2.03;;
50531;SDS011;36483;37.396;-122.212;2023-07-13T00:36:34;5.47;;;1.92;;
50531;SDS011;36483;37.396;-122.212;2023-07-13T00:39:00;4.47;;;1.77;;
50531;SDS011;36483;37.396;-122.212;2023-07-13T00:41:26;5.30;;;1.88;;
50531;SDS011;36483;37.396;-122.212;2023-07-13T00:43:52;4.32;;;1.80;;
50531;SDS011;36483;37.396;-122.212;2023-07-13T00:51:17;7.60;;;2.45;;
50531;SDS011;36483;37.396;-122.212;2023-07-13T00:53:45;5.30;;;1.85;;
50531;SDS011;36483;37.396;-122.212;2023-07-13T00:56:11;6.65;;;1.98;;
50531;SDS011;36483;37.396;-122.212;2023-07-13T00:58:37;4.40;;;2.00;;
50531;SDS011;36483;37.396;-122.212;2023-07-13T01:01:03;3.95;;;1.80;;
50531;SDS011;36483;37.396;-122.212;2023-07-13T01:03:30;3.42;;;1.83;;
50531;SDS011;36483;37.396;-122.212;2023-07-13T01:05:56;5.50;;;2.08;;
50531;SDS011;36483;37.396;-122.212;2023-07-13T01:08:22;6.03;;;2.40;;
50531;SDS011;36483;37.396;-122.212;2023-07-13T01:10:52;4.50;;;2.28;;
50531;SDS011;36483;37.396;-122.212;2023-07-13T01:13:21;4.78;;;2.03;;
50531;SDS011;36483;37.396;-122.212;2023-07-13T01:15:49;4.85;;;2.08;;
50531;SDS011;36483;37.396;-122.212;2023-07-13T01:18:23;5.68;;;2.25;;
50531;SDS011;36483;37.396;-122.212;2023-07-13T01:20:58;5.85;;;2.33;;
50531;SDS011;36483;37.396;-122.212;2023-07-13T01:23:26;6.78;;;2.15;;
50531;SDS011;36483;37.396;-122.212;2023-07-13T01:25:54;3.65;;;1.90;;
50531;SDS011;36483;37.396;-122.212;2023-07-13T01:28:22;6.95;;;2.17;;
50531;SDS011;36483;37.396;-122.212;2023-07-13T01:30:55;5.93;;;2.17;;
50531;SDS011;36483;37.396;-122.212;2023-07-13T01:33:23;3.05;;;1.60;;
50531;SDS011;36483;37.396;-122.212;2023-07-13T01:35:50;4.82;;;1.85;;
50531;SDS011;36483;37.396;-122.212;2023-07-13T01:38:17;4.53;;;2.17;;
50531;SDS011;36483;37.396;-122.212;2023-07-13T01:40:45;4.40;;;1.80;;
50531;SDS011;36483;37.396;-122.212;2023-07-13T01:43:12;6.22;;;2.00;;
50531;SDS011;36483;37.396;-122.212;2023-07-13T01:45:38;4.57;;;2.05;;
50531;SDS011;36483;37.396;-122.212;2023-07-13T01:48:06;4.80;;;2.00;;
50531;SDS011;36483;37.396;-122.212;2023-07-13T01:50:34;4.65;;;1.92;;
50531;SDS011;36483;37.396;-122.212;2023-07-13T01:53:03;6.05;;;2.35;;
50531;SDS011;36483;37.396;-122.212;2023-07-13T01:55:29;6.47;;;1.95;;
50531;SDS011;36483;37.396;-122.212;2023-07-13T01:57:56;6.18;;;2.00;;
50531;SDS011;36483;37.396;-122.212;2023-07-13T02:00:27;3.92;;;1.98;;
50531;SDS011;36483;37.396;-122.212;2023-07-13T02:02:54;4.47;;;1.98;;
50531;SDS011;36483;37.396;-122.212;2023-07-13T02:05:20;4.85;;;1.80;;
50531;SDS011;36483;37.396;-122.212;2023-07-13T02:07:46;4.75;;;1.90;;
50531;SDS011;36483;37.396;-122.212;2023-07-13T02:10:13;4.70;;;1.90;;
50531;SDS011;36483;37.396;-122.212;2023-07-13T02:12:39;3.97;;;2.03;;
50531;SDS011;36483;37.396;-122.212;2023-07-13T02:15:09;3.80;;;1.90;;
50531;SDS011;36483;37.396;-122.212;2023-07-13T02:17:39;6.10;;;2.00;;
50531;SDS011;36483;37.396;-122.212;2023-07-13T02:20:07;4.38;;;1.70;;
50531;SDS011;36483;37.396;-122.212;2023-07-13T02:22:34;3.67;;;1.77;;
50531;SDS011;36483;37.396;-122.212;2023-07-13T02:25:01;5.13;;;2.00;;
50531;SDS011;36483;37.396;-122.212;2023-07-13T02:27:28;5.30;;;2.38;;
50531;SDS011;36483;37.396;-122.212;2023-07-13T02:29:54;4.13;;;1.92;;
50531;SDS011;36483;37.396;-122.212;2023-07-13T02:32:20;5.50;;;2.20;;
50531;SDS011;36483;37.396;-122.212;2023-07-13T02:34:51;4.18;;;1.90;;
50531;SDS011;36483;37.396;-122.212;2023-07-13T02:37:28;7.43;;;2.30;;
50531;SDS011;36483;37.396;-122.212;2023-07-13T02:39:55;7.40;;;2.45;;
50531;SDS011;36483;37.396;-122.212;2023-07-13T02:42:22;6.60;;;2.13;;
50531;SDS011;36483;37.396;-122.212;2023-07-13T02:44:49;4.68;;;2.38;;
50531;SDS011;36483;37.396;-122.212;2023-07-13T02:47:17;5.55;;;2.30;;
50531;SDS011;36483;37.396;-122.212;2023-07-13T02:49:44;6.90;;;2.28;;
50531;SDS011;36483;37.396;-122.212;2023-07-13T02:52:12;5.82;;;2.13;;
50531;SDS011;36483;37.396;-122.212;2023-07-13T02:54:38;4.68;;;2.40;;
50531;SDS011;36483;37.396;-122.212;2023-07-13T02:57:05;7.75;;;2.25;;
50531;SDS011;36483;37.396;-122.212;2023-07-13T02:59:33;6.53;;;2.40;;
50531;SDS011;36483;37.396;-122.212;2023-07-13T03:02:00;7.50;;;2.63;;
50531;SDS011;36483;37.396;-122.212;2023-07-13T03:04:27;4.95;;;2.45;;
50531;SDS011;36483;37.396;-122.212;2023-07-13T03:06:54;7.45;;;2.70;;
50531;SDS011;36483;37.396;-122.212;2023-07-13T03:09:23;8.25;;;2.60;;
50531;SDS011;36483;37.396;-122.212;2023-07-13T03:11:53;8.85;;;2.65;;
50531;SDS011;36483;37.396;-122.212;2023-07-13T03:14:22;7.82;;;3.25;;
50531;SDS011;36483;37.396;-122.212;2023-07-13T03:16:49;7.15;;;2.53;;
50531;SDS011;36483;37.396;-122.212;2023-07-13T03:19:15;10.20;;;2.88;;
50531;SDS011;36483;37.396;-122.212;2023-07-13T03:21:41;8.25;;;3.40;;
50531;SDS011;36483;37.396;-122.212;2023-07-13T03:24:07;8.20;;;2.53;;
50531;SDS011;36483;37.396;-122.212;2023-07-13T03:26:33;8.02;;;2.80;;
50531;SDS011;36483;37.396;-122.212;2023-07-13T03:29:00;5.85;;;2.65;;
50531;SDS011;36483;37.396;-122.212;2023-07-13T03:31:27;8.07;;;3.10;;
50531;SDS011;36483;37.396;-122.212;2023-07-13T03:33:58;5.18;;;2.50;;
50531;SDS011;36483;37.396;-122.212;2023-07-13T03:36:26;7.10;;;3.10;;
50531;SDS011;36483;37.396;-122.212;2023-07-13T03:38:55;10.65;;;2.67;;
50531;SDS011;36483;37.396;-122.212;2023-07-13T03:41:23;6.47;;;2.63;;
50531;SDS011;36483;37.396;-122.212;2023-07-13T03:43:50;6.68;;;2.58;;
50531;SDS011;36483;37.396;-122.212;2023-07-13T03:46:18;6.53;;;2.38;;
50531;SDS011;36483;37.396;-122.212;2023-07-13T03:48:45;7.95;;;2.50;;
50531;SDS011;36483;37.396;-122.212;2023-07-13T03:51:12;8.57;;;2.30;;
50531;SDS011;36483;37.396;-122.212;2023-07-13T03:53:41;8.40;;;2.70;;
50531;SDS011;36483;37.396;-122.212;2023-07-13T03:56:08;6.38;;;2.40;;
50531;SDS011;36483;37.396;-122.212;2023-07-13T03:58:35;6.57;;;2.58;;
50531;SDS011;36483;37.396;-122.212;2023-07-13T04:01:03;8.65;;;2.42;;
50531;SDS011;36483;37.396;-122.212;2023-07-13T04:03:31;6.72;;;2.20;;
50531;SDS011;36483;37.396;-122.212;2023-07-13T04:05:58;7.75;;;2.45;;
50531;SDS011;36483;37.396;-122.212;2023-07-13T04:08:29;7.82;;;3.33;;
50531;SDS011;36483;37.396;-122.212;2023-07-13T04:13:23;6.40;;;2.35;;
50531;SDS011;36483;37.396;-122.212;2023-07-13T04:15:50;6.93;;;2.47;;
50531;SDS011;36483;37.396;-122.212;2023-07-13T04:18:17;6.72;;;2.67;;
50531;SDS011;36483;37.396;-122.212;2023-07-13T04:20:45;5.47;;;2.58;;
50531;SDS011;36483;37.396;-122.212;2023-07-13T04:23:12;6.40;;;2.60;;
50531;SDS011;36483;37.396;-122.212;2023-07-13T04:25:39;9.93;;;2.63;;
50531;SDS011;36483;37.396;-122.212;2023-07-13T04:28:08;5.60;;;2.10;;
50531;SDS011;36483;37.396;-122.212;2023-07-13T04:30:34;8.40;;;2.70;;
50531;SDS011;36483;37.396;-122.212;2023-07-13T04:33:00;7.30;;;2.55;;
50531;SDS011;36483;37.396;-122.212;2023-07-13T04:35:26;9.90;;;2.65;;
50531;SDS011;36483;37.396;-122.212;2023-07-13T04:37:52;5.82;;;2.60;;
50531;SDS011;36483;37.396;-122.212;2023-07-13T04:40:19;7.88;;;2.78;;
50531;SDS011;36483;37.396;-122.212;2023-07-13T04:42:46;7.25;;;2.70;;
50531;SDS011;36483;37.396;-122.212;2023-07-13T04:45:15;5.50;;;2.35;;
50531;SDS011;36483;37.396;-122.212;2023-07-13T04:47:42;9.75;;;2.35;;
50531;SDS011;36483;37.396;-122.212;2023-07-13T04:50:08;6.63;;;2.30;;
50531;SDS011;36483;37.396;-122.212;2023-07-13T04:52:38;6.82;;;2.50;;
50531;SDS011;36483;37.396;-122.212;2023-07-13T04:55:04;8.85;;;2.55;;
50531;SDS011;36483;37.396;-122.212;2023-07-13T04:57:30;7.78;;;2.60;;
50531;SDS011;36483;37.396;-122.212;2023-07-13T04:59:56;6.10;;;2.53;;
50531;SDS011;36483;37.396;-122.212;2023-07-13T05:02:26;9.88;;;3.20;;
50531;SDS011;36483;37.396;-122.212;2023-07-13T05:04:53;8.63;;;2.60;;
50531;SDS011;36483;37.396;-122.212;2023-07-13T05:07:19;6.70;;;2.90;;
50531;SDS011;36483;37.396;-122.212;2023-07-13T05:09:47;5.78;;;2.45;;
50531;SDS011;36483;37.396;-122.212;2023-07-13T05:12:13;6.40;;;2.75;;
50531;SDS011;36483;37.396;-122.212;2023-07-13T05:14:39;6.50;;;2.60;;
50531;SDS011;36483;37.396;-122.212;2023-07-13T05:17:05;8.15;;;2.80;;
50531;SDS011;36483;37.396;-122.212;2023-07-13T05:19:31;8.20;;;2.75;;
50531;SDS011;36483;37.396;-122.212;2023-07-13T05:21:58;6.30;;;2.47;;
50531;SDS011;36483;37.396;-122.212;2023-07-13T05:24:24;7.97;;;2.33;;
50531;SDS011;36483;37.396;-122.212;2023-07-13T05:26:50;6.25;;;2.60;;
50531;SDS011;36483;37.396;-122.212;2023-07-13T05:29:16;7.28;;;2.47;;
50531;SDS011;36483;37.396;-122.212;2023-07-13T05:31:42;5.68;;;2.42;;
50531;SDS011;36483;37.396;-122.212;2023-07-13T05:34:09;6.50;;;2.53;;
50531;SDS011;36483;37.396;-122.212;2023-07-13T05:36:35;5.22;;;2.47;;
50531;SDS011;36483;37.396;-122.212;2023-07-13T05:39:02;6.03;;;2.05;;
50531;SDS011;36483;37.396;-122.212;2023-07-13T05:41:29;5.45;;;2.30;;
50531;SDS011;36483;37.396;-122.212;2023-07-13T05:43:55;6.57;;;2.47;;
50531;SDS011;36483;37.396;-122.212;2023-07-13T05:46:21;4.88;;;2.40;;
50531;SDS011;36483;37.396;-122.212;2023-07-13T05:48:47;5.22;;;2.10;;
50531;SDS011;36483;37.396;-122.212;2023-07-13T05:51:13;6.78;;;2.78;;
50531;SDS011;36483;37.396;-122.212;2023-07-13T05:53:40;5.63;;;2.30;;
50531;SDS011;36483;37.396;-122.212;2023-07-13T05:56:06;5.57;;;2.20;;
50531;SDS011;36483;37.396;-122.212;2023-07-13T05:58:32;5.38;;;2.30;;
50531;SDS011;36483;37.396;-122.212;2023-07-13T06:01:02;3.85;;;1.85;;
50531;SDS011;36483;37.396;-122.212;2023-07-13T06:03:34;6.35;;;2.17;;
50531;SDS011;36483;37.396;-122.212;2023-07-13T06:06:00;7.07;;;2.20;;
50531;SDS011;36483;37.396;-122.212;2023-07-13T06:08:26;6.38;;;2.53;;
50531;SDS011;36483;37.396;-122.212;2023-07-13T06:10:53;5.32;;;2.38;;
50531;SDS011;36483;37.396;-122.212;2023-07-13T06:13:19;6.15;;;2.58;;
50531;SDS011;36483;37.396;-122.212;2023-07-13T06:15:49;6.65;;;2.38;;
50531;SDS011;36483;37.396;-122.212;2023-07-13T06:18:15;3.97;;;1.90;;
50531;SDS011;36483;37.396;-122.212;2023-07-13T06:20:41;6.50;;;2.13;;
50531;SDS011;36483;37.396;-122.212;2023-07-13T06:23:07;5.50;;;2.25;;
50531;SDS011;36483;37.396;-122.212;2023-07-13T06:25:33;6.15;;;2.03;;
50531;SDS011;36483;37.396;-122.212;2023-07-13T06:28:00;5.40;;;2.20;;
50531;SDS011;36483;37.396;-122.212;2023-07-13T06:30:26;5.10;;;2.10;;
50531;SDS011;36483;37.396;-122.212;2023-07-13T06:32:52;4.47;;;2.17;;
50531;SDS011;36483;37.396;-122.212;2023-07-13T06:35:18;4.18;;;1.88;;
50531;SDS011;36483;37.396;-122.212;2023-07-13T06:37:44;5.47;;;2.17;;
50531;SDS011;36483;37.396;-122.212;2023-07-13T06:40:12;4.10;;;2.00;;
50531;SDS011;36483;37.396;-122.212;2023-07-13T06:42:38;5.50;;;2.15;;
50531;SDS011;36483;37.396;-122.212;2023-07-13T06:45:05;5.20;;;2.10;;
50531;SDS011;36483;37.396;-122.212;2023-07-13T06:47:31;4.43;;;2.20;;
50531;SDS011;36483;37.396;-122.212;2023-07-13T06:49:57;4.80;;;2.40;;
50531;SDS011;36483;37.396;-122.212;2023-07-13T06:52:23;4.47;;;2.00;;
50531;SDS011;36483;37.396;-122.212;2023-07-13T06:54:50;5.93;;;2.10;;
50531;SDS011;36483;37.396;-122.212;2023-07-13T06:57:16;5.80;;;2.35;;
50531;SDS011;36483;37.396;-122.212;2023-07-13T06:59:42;6.40;;;2.00;;
50531;SDS011;36483;37.396;-122.212;2023-07-13T07:02:09;3.50;;;1.83;;
50531;SDS011;36483;37.396;-122.212;2023-07-13T07:04:36;7.28;;;2.40;;
50531;SDS011;36483;37.396;-122.212;2023-07-13T07:07:02;4.05;;;2.00;;
50531;SDS011;36483;37.396;-122.212;2023-07-13T07:09:28;6.65;;;2.40;;
50531;SDS011;36483;37.396;-122.212;2023-07-13T07:11:56;5.68;;;2.20;;
50531;SDS011;36483;37.396;-122.212;2023-07-13T07:14:23;5.38;;;2.17;;
50531;SDS011;36483;37.396;-122.212;2023-07-13T07:16:49;5.35;;;2.35;;
50531;SDS011;36483;37.396;-122.212;2023-07-13T07:19:16;3.97;;;2.20;;
50531;SDS011;36483;37.396;-122.212;2023-07-13T07:21:42;4.70;;;1.98;;
50531;SDS011;36483;37.396;-122.212;2023-07-13T07:24:08;8.68;;;3.13;;
50531;SDS011;36483;37.396;-122.212;2023-07-13T07:26:34;7.22;;;2.47;;
50531;SDS011;36483;37.396;-122.212;2023-07-13T07:29:00;7.35;;;2.30;;
50531;SDS011;36483;37.396;-122.212;2023-07-13T07:31:26;4.88;;;2.15;;
50531;SDS011;36483;37.396;-122.212;2023-07-13T07:33:52;4.70;;;2.17;;
50531;SDS011;36483;37.396;-122.212;2023-07-13T07:36:18;5.60;;;2.30;;
50531;SDS011;36483;37.396;-122.212;2023-07-13T07:38:45;5.47;;;2.08;;
50531;SDS011;36483;37.396;-122.212;2023-07-13T07:41:11;5.50;;;2.30;;
50531;SDS011;36483;37.396;-122.212;2023-07-13T07:43:38;5.40;;;2.13;;
50531;SDS011;36483;37.396;-122.212;2023-07-13T07:46:04;4.85;;;2.03;;
50531;SDS011;36483;37.396;-122.212;2023-07-13T07:48:30;5.10;;;2.25;;
50531;SDS011;36483;37.396;-122.212;2023-07-13T07:50:56;5.20;;;2.03;;
50531;SDS011;36483;37.396;-122.212;2023-07-13T07:53:22;5.70;;;2.08;;
50531;SDS011;36483;37.396;-122.212;2023-07-13T07:55:48;4.53;;;2.20;;
50531;SDS011;36483;37.396;-122.212;2023-07-13T07:58:15;6.22;;;2.17;;
50531;SDS011;36483;37.396;-122.212;2023-07-13T08:00:41;4.78;;;2.85;;
50531;SDS011;36483;37.396;-122.212;2023-07-13T08:03:07;5.03;;;2.05;;
50531;SDS011;36483;37.396;-122.212;2023-07-13T08:05:35;5.53;;;2.38;;
50531;SDS011;36483;37.396;-122.212;2023-07-13T08:08:02;6.15;;;2.15;;
50531;SDS011;36483;37.396;-122.212;2023-07-13T08:10:28;5.38;;;2.20;;
50531;SDS011;36483;37.396;-122.212;2023-07-13T08:12:55;5.13;;;2.10;;
50531;SDS011;36483;37.396;-122.212;2023-07-13T08:15:21;6.13;;;2.40;;
50531;SDS011;36483;37.396;-122.212;2023-07-13T08:17:48;5.18;;;2.13;;
50531;SDS011;36483;37.396;-122.212;2023-07-13T08:20:14;5.07;;;2.30;;
50531;SDS011;36483;37.396;-122.212;2023-07-13T08:22:41;6.82;;;2.45;;
50531;SDS011;36483;37.396;-122.212;2023-07-13T08:25:07;5.15;;;2.13;;
50531;SDS011;36483;37.396;-122.212;2023-07-13T08:27:33;6.03;;;2.40;;
50531;SDS011;36483;37.396;-122.212;2023-07-13T08:30:00;6.85;;;2.53;;
50531;SDS011;36483;37.396;-122.212;2023-07-13T08:32:26;5.72;;;2.47;;
50531;SDS011;36483;37.396;-122.212;2023-07-13T08:34:52;5.70;;;2.25;;
50531;SDS011;36483;37.396;-122.212;2023-07-13T08:37:18;8.45;;;2.70;;
50531;SDS011;36483;37.396;-122.212;2023-07-13T08:39:45;5.60;;;2.13;;
50531;SDS011;36483;37.396;-122.212;2023-07-13T08:47:22;4.15;;;2.15;;
50531;SDS011;36483;37.396;-122.212;2023-07-13T08:49:49;3.67;;;2.10;;
50531;SDS011;36483;37.396;-122.212;2023-07-13T08:52:20;4.32;;;2.13;;
50531;SDS011;36483;37.396;-122.212;2023-07-13T08:54:54;4.28;;;2.10;;
50531;SDS011;36483;37.396;-122.212;2023-07-13T08:57:24;6.68;;;2.20;;
50531;SDS011;36483;37.396;-122.212;2023-07-13T08:59:55;7.85;;;2.88;;
50531;SDS011;36483;37.396;-122.212;2023-07-13T09:05:40;8.73;;;2.65;;
50531;SDS011;36483;37.396;-122.212;2023-07-13T09:10:52;4.75;;;2.78;;
50531;SDS011;36483;37.396;-122.212;2023-07-13T09:13:25;5.50;;;2.50;;
50531;SDS011;36483;37.396;-122.212;2023-07-13T09:16:04;6.55;;;2.33;;
50531;SDS011;36483;37.396;-122.212;2023-07-13T09:21:23;4.93;;;2.33;;
50531;SDS011;36483;37.396;-122.212;2023-07-13T09:24:03;5.90;;;2.42;;
50531;SDS011;36483;37.396;-122.212;2023-07-13T09:26:45;7.93;;;2.60;;
50531;SDS011;36483;37.396;-122.212;2023-07-13T09:29:16;5.45;;;2.20;;
50531;SDS011;36483;37.396;-122.212;2023-07-13T09:31:55;6.22;;;2.33;;
50531;SDS011;36483;37.396;-122.212;2023-07-13T09:34:23;4.30;;;2.25;;
50531;SDS011;36483;37.396;-122.212;2023-07-13T09:36:51;7.15;;;2.53;;
50531;SDS011;36483;37.396;-122.212;2023-07-13T09:41:51;6.25;;;2.30;;
50531;SDS011;36483;37.396;-122.212;2023-07-13T09:45:00;7.35;;;2.50;;
50531;SDS011;36483;37.396;-122.212;2023-07-13T09:47:28;4.47;;;2.22;;
50531;SDS011;36483;37.396;-122.212;2023-07-13T09:49:57;6.10;;;2.30;;
50531;SDS011;36483;37.396;-122.212;2023-07-13T09:52:27;6.97;;;2.40;;
50531;SDS011;36483;37.396;-122.212;2023-07-13T09:55:24;6.57;;;2.65;;
50531;SDS011;36483;37.396;-122.212;2023-07-13T09:57:52;4.72;;;2.50;;
50531;SDS011;36483;37.396;-122.212;2023-07-13T10:00:23;4.65;;;2.50;;
50531;SDS011;36483;37.396;-122.212;2023-07-13T10:03:02;5.85;;;2.67;;
50531;SDS011;36483;37.396;-122.212;2023-07-13T10:05:51;5.05;;;2.28;;
50531;SDS011;36483;37.396;-122.212;2023-07-13T10:08:18;8.40;;;3.10;;
50531;SDS011;36483;37.396;-122.212;2023-07-13T10:10:57;5.57;;;2.47;;
50531;SDS011;36483;37.396;-122.212;2023-07-13T10:16:00;6.15;;;2.53;;
50531;SDS011;36483;37.396;-122.212;2023-07-13T10:18:27;7.57;;;2.88;;
50531;SDS011;36483;37.396;-122.212;2023-07-13T10:21:09;8.20;;;2.50;;
50531;SDS011;36483;37.396;-122.212;2023-07-13T10:23:40;6.15;;;2.65;;
50531;SDS011;36483;37.396;-122.212;2023-07-13T10:26:18;5.60;;;2.70;;
50531;SDS011;36483;37.396;-122.212;2023-07-13T10:28:54;5.68;;;2.50;;
50531;SDS011;36483;37.396;-122.212;2023-07-13T10:31:22;4.80;;;2.60;;
50531;SDS011;36483;37.396;-122.212;2023-07-13T10:33:49;5.57;;;2.60;;
50531;SDS011;36483;37.396;-122.212;2023-07-13T10:38:45;5.85;;;2.70;;
50531;SDS011;36483;37.396;-122.212;2023-07-13T10:41:17;5.82;;;2.50;;
50531;SDS011;36483;37.396;-122.212;2023-07-13T10:43:50;6.43;;;2.95;;
50531;SDS011;36483;37.396;-122.212;2023-07-13T10:46:18;5.20;;;2.22;;
50531;SDS011;36483;37.396;-122.212;2023-07-13T10:48:47;5.55;;;2.47;;
50531;SDS011;36483;37.396;-122.212;2023-07-13T10:51:16;4.82;;;2.60;;
50531;SDS011;36483;37.396;-122.212;2023-07-13T10:53:46;5.80;;;2.70;;
50531;SDS011;36483;37.396;-122.212;2023-07-13T10:56:22;6.88;;;2.55;;
50531;SDS011;36483;37.396;-122.212;2023-07-13T10:59:11;5.13;;;2.70;;
50531;SDS011;36483;37.396;-122.212;2023-07-13T11:01:54;4.10;;;2.40;;
50531;SDS011;36483;37.396;-122.212;2023-07-13T11:04:23;8.35;;;3.38;;
50531;SDS011;36483;37.396;-122.212;2023-07-13T11:06:52;6.40;;;2.63;;
50531;SDS011;36483;37.396;-122.212;2023-07-13T11:09:39;5.50;;;2.78;;
50531;SDS011;36483;37.396;-122.212;2023-07-13T11:12:28;8.77;;;2.75;;
50531;SDS011;36483;37.396;-122.212;2023-07-13T11:20:10;5.25;;;2.50;;
50531;SDS011;36483;37.396;-122.212;2023-07-13T11:22:53;5.80;;;2.60;;
50531;SDS011;36483;37.396;-122.212;2023-07-13T11:25:33;6.07;;;2.63;;
50531;SDS011;36483;37.396;-122.212;2023-07-13T11:38:38;7.22;;;2.78;;
50531;SDS011;36483;37.396;-122.212;2023-07-13T11:43:44;8.77;;;2.97;;
50531;SDS011;36483;37.396;-122.212;2023-07-13T11:46:14;7.00;;;2.45;;
50531;SDS011;36483;37.396;-122.212;2023-07-13T11:48:44;5.57;;;2.53;;
50531;SDS011;36483;37.396;-122.212;2023-07-13T11:51:14;4.70;;;2.40;;
50531;SDS011;36483;37.396;-122.212;2023-07-13T11:54:06;6.05;;;2.47;;
50531;SDS011;36483;37.396;-122.212;2023-07-13T11:56:41;5.65;;;2.70;;
50531;SDS011;36483;37.396;-122.212;2023-07-13T11:59:08;6.25;;;2.80;;
50531;SDS011;36483;37.396;-122.212;2023-07-13T12:01:41;6.72;;;2.45;;
50531;SDS011;36483;37.396;-122.212;2023-07-13T12:04:11;5.20;;;2.50;;
50531;SDS011;36483;37.396;-122.212;2023-07-13T12:07:08;7.07;;;3.08;;
50531;SDS011;36483;37.396;-122.212;2023-07-13T12:09:41;6.35;;;2.50;;
50531;SDS011;36483;37.396;-122.212;2023-07-13T12:12:11;7.05;;;2.65;;
50531;SDS011;36483;37.396;-122.212;2023-07-13T12:14:38;4.63;;;2.20;;
50531;SDS011;36483;37.396;-122.212;2023-07-13T12:19:47;5.88;;;2.47;;
50531;SDS011;36483;37.396;-122.212;2023-07-13T12:22:17;5.10;;;2.42;;
50531;SDS011;36483;37.396;-122.212;2023-07-13T12:24:44;5.57;;;2.28;;
50531;SDS011;36483;37.396;-122.212;2023-07-13T12:27:25;5.95;;;2.30;;
50531;SDS011;36483;37.396;-122.212;2023-07-13T12:32:30;4.47;;;2.22;;
50531;SDS011;36483;37.396;-122.212;2023-07-13T12:35:14;4.53;;;2.72;;
50531;SDS011;36483;37.396;-122.212;2023-07-13T12:37:47;6.75;;;2.47;;
50531;SDS011;36483;37.396;-122.212;2023-07-13T12:40:17;4.88;;;2.05;;
50531;SDS011;36483;37.396;-122.212;2023-07-13T12:42:46;6.38;;;2.50;;
50531;SDS011;36483;37.396;-122.212;2023-07-13T12:45:18;5.45;;;2.58;;
50531;SDS011;36483;37.396;-122.212;2023-07-13T12:47:53;4.70;;;2.50;;
50531;SDS011;36483;37.396;-122.212;2023-07-13T12:50:22;6.05;;;2.45;;
50531;SDS011;36483;37.396;-122.212;2023-07-13T12:53:01;5.95;;;2.30;;
50531;SDS011;36483;37.396;-122.212;2023-07-13T12:55:39;5.80;;;2.67;;
50531;SDS011;36483;37.396;-122.212;2023-07-13T12:58:13;7.20;;;2.20;;
50531;SDS011;36483;37.396;-122.212;2023-07-13T13:00:48;7.03;;;2.20;;
50531;SDS011;36483;37.396;-122.212;2023-07-13T13:05:44;6.45;;;2.33;;
50531;SDS011;36483;37.396;-122.212;2023-07-13T13:08:11;6.65;;;2.58;;
50531;SDS011;36483;37.396;-122.212;2023-07-13T13:10:37;5.90;;;2.30;;
50531;SDS011;36483;37.396;-122.212;2023-07-13T13:13:03;4.60;;;2.42;;
50531;SDS011;36483;37.396;-122.212;2023-07-13T13:15:29;6.60;;;2.50;;
50531;SDS011;36483;37.396;-122.212;2023-07-13T13:17:56;7.70;;;2.67;;
50531;SDS011;36483;37.396;-122.212;2023-07-13T13:20:24;5.05;;;2.85;;
50531;SDS011;36483;37.396;-122.212;2023-07-13T13:22:53;6.25;;;2.60;;
50531;SDS011;36483;37.396;-122.212;2023-07-13T13:25:20;4.03;;;2.38;;
50531;SDS011;36483;37.396;-122.212;2023-07-13T13:27:47;4.90;;;2.38;;
50531;SDS011;36483;37.396;-122.212;2023-07-13T13:30:16;4.95;;;2.50;;
50531;SDS011;36483;37.396;-122.212;2023-07-13T13:33:04;9.18;;;3.15;;
50531;SDS011;36483;37.396;-122.212;2023-07-13T13:35:33;6.75;;;2.50;;
50531;SDS011;36483;37.396;-122.212;2023-07-13T13:37:59;7.78;;;2.95;;
50531;SDS011;36483;37.396;-122.212;2023-07-13T13:40:26;6.40;;;2.80;;
50531;SDS011;36483;37.396;-122.212;2023-07-13T13:42:53;7.03;;;3.00;;
50531;SDS011;36483;37.396;-122.212;2023-07-13T13:45:21;7.65;;;2.88;;
50531;SDS011;36483;37.396;-122.212;2023-07-13T13:47:49;5.75;;;2.45;;
50531;SDS011;36483;37.396;-122.212;2023-07-13T13:50:20;5.20;;;2.55;;
50531;SDS011;36483;37.396;-122.212;2023-07-13T13:52:48;4.18;;;2.63;;
50531;SDS011;36483;37.396;-122.212;2023-07-13T13:55:14;6.30;;;2.50;;
50531;SDS011;36483;37.396;-122.212;2023-07-13T13:57:44;5.57;;;2.60;;
50531;SDS011;36483;37.396;-122.212;2023-07-13T14:00:11;3.38;;;2.40;;
50531;SDS011;36483;37.396;-122.212;2023-07-13T14:02:44;6.60;;;2.60;;
50531;SDS011;36483;37.396;-122.212;2023-07-13T14:05:23;6.22;;;2.45;;
50531;SDS011;36483;37.396;-122.212;2023-07-13T14:07:53;7.28;;;2.42;;
50531;SDS011;36483;37.396;-122.212;2023-07-13T14:10:20;7.00;;;2.58;;
50531;SDS011;36483;37.396;-122.212;2023-07-13T14:12:47;6.15;;;2.40;;
50531;SDS011;36483;37.396;-122.212;2023-07-13T14:15:19;7.45;;;3.22;;
50531;SDS011;36483;37.396;-122.212;2023-07-13T14:17:47;7.50;;;2.83;;
50531;SDS011;36483;37.396;-122.212;2023-07-13T14:20:17;7.70;;;2.88;;
50531;SDS011;36483;37.396;-122.212;2023-07-13T14:22:45;7.13;;;2.88;;
50531;SDS011;36483;37.396;-122.212;2023-07-13T14:25:12;7.93;;;3.10;;
50531;SDS011;36483;37.396;-122.212;2023-07-13T14:27:39;12.38;;;3.33;;
50531;SDS011;36483;37.396;-122.212;2023-07-13T14:30:13;7.93;;;3.15;;
50531;SDS011;36483;37.396;-122.212;2023-07-13T14:32:40;6.43;;;2.95;;
50531;SDS011;36483;37.396;-122.212;2023-07-13T14:35:08;10.50;;;3.80;;
50531;SDS011;36483;37.396;-122.212;2023-07-13T14:37:41;9.70;;;3.67;;
50531;SDS011;36483;37.396;-122.212;2023-07-13T14:40:15;11.23;;;3.35;;
50531;SDS011;36483;37.396;-122.212;2023-07-13T14:42:42;9.20;;;3.63;;
50531;SDS011;36483;37.396;-122.212;2023-07-13T14:45:15;10.30;;;3.70;;
50531;SDS011;36483;37.396;-122.212;2023-07-13T14:47:43;10.57;;;4.20;;
50531;SDS011;36483;37.396;-122.212;2023-07-13T14:50:27;17.25;;;4.60;;
50531;SDS011;36483;37.396;-122.212;2023-07-13T14:52:57;8.63;;;3.60;;
50531;SDS011;36483;37.396;-122.212;2023-07-13T14:55:23;10.55;;;4.30;;
50531;SDS011;36483;37.396;-122.212;2023-07-13T14:57:51;13.00;;;4.15;;
50531;SDS011;36483;37.396;-122.212;2023-07-13T15:00:19;10.70;;;4.13;;
50531;SDS011;36483;37.396;-122.212;2023-07-13T15:02:53;11.27;;;4.68;;
50531;SDS011;36483;37.396;-122.212;2023-07-13T15:05:22;7.10;;;3.53;;
50531;SDS011;36483;37.396;-122.212;2023-07-13T15:07:56;10.02;;;3.85;;
50531;SDS011;36483;37.396;-122.212;2023-07-13T15:10:31;8.95;;;4.38;;
50531;SDS011;36483;37.396;-122.212;2023-07-13T15:12:59;13.35;;;4.35;;
50531;SDS011;36483;37.396;-122.212;2023-07-13T15:15:31;11.90;;;4.20;;